createdAt,value
2023-01-30T00:02:01.398Z,27.67
2023-01-30T00:04:29.529Z,28.60
2023-01-30T00:06:57.584Z,23.50
2023-01-30T00:09:25.542Z,32.95
2023-01-30T00:11:53.609Z,23.60
2023-01-30T00:14:22.970Z,24.92
2023-01-30T00:16:50.891Z,33.80
2023-01-30T00:19:18.884Z,23.33
2023-01-30T00:21:46.959Z,25.70
2023-01-30T00:24:15.449Z,26.83
2023-01-30T00:26:43.622Z,25.90
2023-01-30T00:29:11.687Z,28.55
2023-01-30T00:31:41.190Z,26.55
2023-01-30T00:34:09.407Z,22.20
2023-01-30T00:36:37.296Z,17.92
2023-01-30T00:39:05.348Z,28.50
2023-01-30T00:41:48.040Z,21.58
2023-01-30T00:44:49.305Z,17.23
2023-01-30T00:47:18.759Z,29.00
2023-01-30T00:49:46.667Z,18.33
2023-01-30T00:52:14.771Z,23.35
2023-01-30T00:54:42.953Z,18.15
2023-01-30T00:57:10.950Z,23.13
2023-01-30T00:59:38.878Z,21.20
2023-01-30T01:02:06.873Z,22.75
2023-01-30T01:04:43.295Z,21.70
2023-01-30T01:07:13.185Z,18.00
2023-01-30T01:09:41.292Z,28.52
2023-01-30T01:12:09.975Z,20.70
2023-01-30T01:14:38.140Z,15.98
2023-01-30T01:17:06.670Z,16.90
2023-01-30T01:19:36.511Z,15.35
2023-01-30T01:22:04.663Z,19.73
2023-01-30T01:24:34.483Z,12.48
2023-01-30T01:27:02.601Z,12.93
2023-01-30T01:29:30.632Z,13.32
2023-01-30T01:31:59.302Z,18.95
2023-01-30T01:34:27.385Z,18.00
2023-01-30T01:36:56.779Z,15.43
2023-01-30T01:39:45.390Z,16.05
2023-01-30T01:42:13.037Z,11.30
2023-01-30T01:45:01.843Z,14.85
2023-01-30T01:47:29.984Z,16.52
2023-01-30T01:49:58.203Z,16.42
2023-01-30T01:52:27.996Z,13.25
2023-01-30T01:55:00.846Z,17.35
2023-01-30T01:57:33.946Z,16.98
2023-01-30T02:00:06.495Z,19.40
2023-01-30T02:02:43.439Z,22.52
2023-01-30T02:05:14.111Z,17.95
2023-01-30T02:07:49.304Z,28.70
2023-01-30T02:10:20.292Z,22.10
2023-01-30T02:12:49.967Z,16.33
2023-01-30T02:15:19.862Z,28.35
2023-01-30T02:17:48.421Z,18.25
2023-01-30T02:20:26.326Z,22.98
2023-01-30T02:23:45.004Z,43.03
2023-01-30T02:26:55.577Z,33.92
2023-01-30T02:30:17.060Z,43.08
2023-01-30T02:32:53.177Z,26.30
2023-01-30T02:35:30.959Z,35.75
2023-01-30T02:38:16.668Z,30.20
2023-01-30T02:41:00.931Z,32.50
2023-01-30T02:43:39.001Z,33.50
2023-01-30T02:46:13.213Z,34.60
2023-01-30T02:48:47.995Z,33.13
2023-01-30T02:51:20.263Z,32.55
2023-01-30T02:53:49.491Z,33.77
2023-01-30T02:56:18.639Z,27.13
2023-01-30T02:58:51.469Z,29.00
2023-01-30T03:01:41.845Z,27.35
2023-01-30T03:04:32.153Z,34.60
2023-01-30T03:07:19.275Z,33.30
2023-01-30T03:09:55.271Z,33.53
2023-01-30T03:12:37.940Z,35.65
2023-01-30T03:15:13.388Z,37.08
2023-01-30T03:17:46.439Z,20.83
2023-01-30T03:20:20.970Z,26.90
2023-01-30T03:22:49.415Z,19.17
2023-01-30T03:25:21.909Z,23.67
2023-01-30T03:27:52.332Z,29.88
2023-01-30T03:30:20.733Z,27.10
2023-01-30T03:32:50.236Z,21.48
2023-01-30T03:35:20.139Z,26.80
2023-01-30T03:37:48.792Z,25.13
2023-01-30T03:40:18.294Z,30.83
2023-01-30T03:42:47.389Z,20.98
2023-01-30T03:45:16.457Z,23.90
2023-01-30T03:47:45.443Z,38.83
2023-01-30T03:50:13.889Z,25.60
2023-01-30T03:52:43.273Z,38.90
2023-01-30T03:57:44.629Z,33.90
2023-01-30T04:00:13.705Z,35.90
2023-01-30T04:02:44.736Z,30.38
2023-01-30T04:05:16.659Z,27.20
2023-01-30T04:07:52.400Z,33.30
2023-01-30T04:10:20.863Z,43.47
2023-01-30T04:12:49.038Z,28.52
2023-01-30T04:15:18.483Z,38.85
2023-01-30T04:18:10.095Z,33.55
2023-01-30T04:20:49.056Z,24.67
2023-01-30T04:23:22.868Z,34.42
2023-01-30T04:25:51.965Z,25.25
2023-01-30T04:28:22.523Z,35.92
2023-01-30T04:30:50.622Z,35.97
2023-01-30T04:33:40.239Z,35.78
2023-01-30T04:36:10.810Z,33.92
2023-01-30T04:38:40.297Z,26.83
2023-01-30T04:41:08.796Z,30.70
2023-01-30T04:43:40.633Z,25.55
2023-01-30T04:46:37.653Z,29.90
2023-01-30T04:49:05.521Z,42.55
2023-01-30T04:51:33.916Z,40.72
2023-01-30T04:54:03.980Z,36.38
2023-01-30T04:56:32.665Z,47.85
2023-01-30T04:59:00.818Z,42.03
2023-01-30T05:01:36.410Z,40.63
2023-01-30T05:04:05.520Z,39.72
2023-01-30T05:06:34.881Z,35.00
2023-01-30T05:09:05.299Z,32.60
2023-01-30T05:11:34.440Z,32.10
2023-01-30T05:14:03.026Z,41.08
2023-01-30T05:16:31.493Z,39.85
2023-01-30T05:18:59.730Z,30.98
2023-01-30T05:21:28.923Z,46.88
2023-01-30T05:23:58.316Z,36.53
2023-01-30T05:26:27.921Z,48.05
2023-01-30T05:28:58.240Z,38.80
2023-01-30T05:31:26.895Z,37.13
2023-01-30T05:33:55.902Z,43.88
2023-01-30T05:36:24.839Z,36.92
2023-01-30T05:38:53.129Z,37.72
2023-01-30T05:41:21.419Z,52.53
2023-01-30T05:43:54.202Z,40.92
2023-01-30T05:46:22.538Z,39.50
2023-01-30T05:48:50.805Z,46.42
2023-01-30T05:51:20.787Z,45.15
2023-01-30T05:53:49.431Z,38.90
2023-01-30T05:56:18.405Z,43.58
2023-01-30T05:58:52.027Z,37.97
2023-01-30T06:01:23.254Z,47.15
2023-01-30T06:03:51.599Z,27.88
2023-01-30T06:06:20.521Z,37.38
2023-01-30T06:08:49.325Z,46.22
2023-01-30T06:11:18.748Z,33.08
2023-01-30T06:13:46.898Z,32.05
2023-01-30T06:16:17.339Z,50.38
2023-01-30T06:18:48.291Z,45.22
2023-01-30T06:21:17.232Z,51.40
2023-01-30T06:23:46.345Z,32.35
2023-01-30T06:26:14.746Z,42.78
2023-01-30T06:28:42.989Z,26.25
2023-01-30T06:31:11.782Z,42.65
2023-01-30T06:33:39.837Z,38.00
2023-01-30T06:36:10.275Z,43.25
2023-01-30T06:38:38.445Z,38.65
2023-01-30T06:41:07.417Z,40.70
2023-01-30T06:43:35.497Z,33.60
2023-01-30T06:46:03.713Z,45.10
2023-01-30T06:48:31.869Z,57.35
2023-01-30T06:51:00.359Z,41.65
2023-01-30T06:53:31.219Z,37.85
2023-01-30T06:56:00.206Z,39.13
2023-01-30T06:58:28.724Z,34.83
2023-01-30T07:00:57.500Z,38.08
2023-01-30T07:03:27.307Z,29.05
2023-01-30T07:05:56.249Z,50.40
2023-01-30T07:08:24.488Z,46.03
2023-01-30T07:10:54.243Z,30.20
2023-01-30T07:13:23.049Z,44.17
2023-01-30T07:15:51.896Z,38.20
2023-01-30T07:18:20.923Z,42.92
2023-01-30T07:20:49.648Z,46.63
2023-01-30T07:23:18.920Z,49.10
2023-01-30T07:25:47.509Z,36.53
2023-01-30T07:28:16.831Z,43.67
2023-01-30T07:30:45.065Z,41.47
2023-01-30T07:33:13.202Z,49.20
2023-01-30T07:35:41.282Z,30.70
2023-01-30T07:38:09.522Z,39.72
2023-01-30T07:40:38.483Z,23.80
2023-01-30T07:43:08.580Z,42.20
2023-01-30T07:45:41.536Z,39.42
2023-01-30T07:48:11.322Z,49.75
2023-01-30T07:50:39.664Z,41.30
2023-01-30T07:53:09.465Z,40.78
2023-01-30T07:55:38.368Z,46.15
2023-01-30T07:58:06.541Z,35.78
2023-01-30T08:00:35.375Z,43.38
2023-01-30T08:03:05.424Z,37.03
2023-01-30T08:05:34.318Z,25.38
2023-01-30T08:08:02.506Z,34.92
2023-01-30T08:10:30.787Z,43.72
2023-01-30T08:12:58.854Z,34.75
2023-01-30T08:15:27.234Z,42.97
2023-01-30T08:17:56.603Z,41.53
2023-01-30T08:20:27.535Z,37.13
2023-01-30T08:22:56.333Z,34.58
2023-01-30T08:25:24.983Z,25.25
2023-01-30T08:27:53.914Z,33.15
2023-01-30T08:30:24.065Z,42.45
2023-01-30T08:32:52.156Z,37.85
2023-01-30T08:35:21.103Z,42.05
2023-01-30T08:37:51.269Z,44.33
2023-01-30T08:40:20.390Z,35.72
2023-01-30T08:42:48.717Z,47.40
2023-01-30T08:45:17.301Z,43.13
2023-01-30T08:47:45.472Z,43.95
2023-01-30T08:50:13.773Z,41.78
2023-01-30T08:52:42.078Z,49.03
2023-01-30T08:55:13.046Z,36.17
2023-01-30T08:57:41.425Z,43.38
2023-01-30T09:00:11.889Z,45.03
2023-01-30T09:02:40.604Z,36.40
2023-01-30T09:05:11.168Z,34.63
2023-01-30T09:07:39.672Z,36.95
2023-01-30T09:10:08.246Z,46.67
2023-01-30T09:12:37.656Z,55.10
2023-01-30T09:15:07.353Z,36.28
2023-01-30T09:17:35.518Z,40.80
2023-01-30T09:20:04.527Z,47.55
2023-01-30T09:22:32.797Z,51.58
2023-01-30T09:25:01.062Z,45.53
2023-01-30T09:27:29.256Z,54.97
2023-01-30T09:29:58.849Z,51.25
2023-01-30T09:32:27.336Z,36.55
2023-01-30T09:34:55.410Z,38.38
2023-01-30T09:37:23.610Z,44.97
2023-01-30T09:39:51.927Z,40.72
2023-01-30T09:43:03.129Z,39.08
2023-01-30T09:45:54.667Z,41.78
2023-01-30T09:48:31.096Z,43.17
2023-01-30T09:51:31.567Z,37.72
2023-01-30T09:54:24.442Z,40.45
2023-01-30T09:57:02.771Z,42.55
2023-01-30T09:59:38.488Z,41.28
2023-01-30T10:02:25.258Z,40.70
2023-01-30T10:05:01.794Z,50.67
2023-01-30T10:07:45.576Z,48.25
2023-01-30T10:10:22.731Z,39.10
2023-01-30T10:13:04.376Z,45.88
2023-01-30T10:15:48.757Z,40.00
2023-01-30T10:21:11.373Z,51.03
2023-01-30T10:24:00.801Z,49.97
2023-01-30T10:26:31.001Z,32.05
2023-01-30T10:29:07.771Z,32.70
2023-01-30T10:31:44.081Z,16.77
2023-01-30T10:34:18.382Z,8.60
2023-01-30T10:36:56.001Z,9.52
2023-01-30T10:39:33.497Z,8.50
2023-01-30T10:42:11.979Z,11.35
2023-01-30T10:44:42.970Z,5.82
2023-01-30T10:47:46.295Z,8.13
2023-01-30T10:50:19.459Z,6.40
2023-01-30T10:52:58.466Z,8.70
2023-01-30T10:55:37.622Z,15.48
2023-01-30T10:58:19.304Z,16.30
2023-01-30T11:00:56.337Z,20.92
2023-01-30T11:03:35.209Z,17.55
2023-01-30T11:06:09.042Z,21.05
2023-01-30T11:08:38.779Z,27.48
2023-01-30T11:11:27.289Z,23.90
2023-01-30T11:14:04.427Z,33.55
2023-01-30T11:16:34.475Z,31.27
2023-01-30T11:19:22.737Z,26.60
2023-01-30T11:21:53.206Z,23.83
2023-01-30T11:24:26.198Z,40.88
2023-01-30T11:26:54.503Z,35.28
2023-01-30T11:29:28.941Z,23.98
2023-01-30T11:31:58.355Z,26.48
2023-01-30T11:34:26.515Z,35.30
2023-01-30T11:36:54.694Z,27.15
2023-01-30T11:39:30.200Z,26.30
2023-01-30T11:42:01.951Z,23.42
2023-01-30T11:44:36.407Z,31.10
2023-01-30T11:47:10.036Z,26.83
2023-01-30T11:52:26.348Z,30.67
2023-01-30T11:55:05.962Z,18.57
2023-01-30T11:57:42.996Z,20.92
2023-01-30T12:00:20.858Z,25.92
2023-01-30T12:02:51.221Z,21.13
2023-01-30T12:05:26.948Z,27.33
2023-01-30T12:07:55.346Z,36.45
2023-01-30T12:10:33.701Z,32.72
2023-01-30T12:13:13.859Z,43.63
2023-01-30T12:15:45.542Z,29.15
2023-01-30T12:18:19.604Z,29.05
2023-01-30T12:20:54.060Z,29.13
2023-01-30T12:23:32.050Z,35.05
2023-01-30T12:26:08.738Z,33.05
2023-01-30T12:28:43.977Z,31.63
2023-01-30T12:31:17.579Z,41.47
2023-01-30T12:33:45.777Z,34.13
2023-01-30T12:36:24.750Z,35.28
2023-01-30T12:39:02.616Z,44.25
2023-01-30T12:41:43.723Z,34.92
2023-01-30T12:44:29.677Z,45.08
2023-01-30T12:47:17.033Z,38.17
2023-01-30T12:49:58.831Z,38.78
2023-01-30T12:52:52.146Z,40.38
2023-01-30T12:55:27.521Z,45.10
2023-01-30T12:58:04.277Z,34.92
2023-01-30T13:00:46.586Z,34.95
2023-01-30T13:03:26.880Z,54.53
2023-01-30T13:06:09.095Z,35.45
2023-01-30T13:08:55.291Z,34.92
2023-01-30T13:11:42.177Z,44.15
2023-01-30T13:14:20.717Z,30.67
2023-01-30T13:17:15.560Z,35.40
2023-01-30T13:19:50.072Z,34.80
2023-01-30T13:22:25.266Z,49.40
2023-01-30T13:25:02.010Z,29.02
2023-01-30T13:27:35.664Z,46.22
2023-01-30T13:32:41.731Z,54.47
2023-01-30T13:35:18.403Z,36.60
2023-01-30T13:37:50.019Z,67.47
2023-01-30T13:40:21.200Z,46.85
2023-01-30T13:42:55.322Z,52.85
2023-01-30T13:45:28.211Z,42.78
2023-01-30T13:48:15.043Z,41.92
2023-01-30T13:50:59.694Z,46.10
2023-01-30T13:53:34.577Z,48.88
2023-01-30T13:56:16.273Z,50.03
2023-01-30T13:59:01.319Z,60.05
2023-01-30T14:02:03.039Z,52.10
2023-01-30T14:04:50.611Z,37.20
2023-01-30T14:07:24.174Z,55.45
2023-01-30T14:10:04.734Z,60.97
2023-01-30T14:12:37.705Z,49.78
2023-01-30T14:15:20.808Z,49.42
2023-01-30T14:18:00.619Z,41.28
2023-01-30T14:20:31.546Z,50.03
2023-01-30T14:23:01.796Z,54.65
2023-01-30T14:25:46.229Z,47.72
2023-01-30T14:28:51.021Z,50.67
2023-01-30T14:31:52.846Z,39.25
2023-01-30T14:34:51.243Z,55.17
2023-01-30T14:37:46.303Z,30.20
2023-01-30T14:40:38.832Z,38.50
2023-01-30T14:43:40.709Z,55.22
2023-01-30T14:46:42.096Z,46.03
2023-01-30T14:49:31.037Z,44.28
2023-01-30T14:52:00.027Z,60.15
2023-01-30T14:54:51.485Z,56.50
2023-01-30T14:57:23.815Z,41.70
2023-01-30T15:00:14.336Z,51.65
2023-01-30T15:02:44.994Z,40.22
2023-01-30T15:05:18.744Z,33.10
2023-01-30T15:07:50.483Z,29.60
2023-01-30T15:10:44.204Z,30.63
2023-01-30T15:13:33.437Z,23.35
2023-01-30T15:16:15.300Z,31.27
2023-01-30T15:19:11.645Z,23.35
2023-01-30T15:21:59.352Z,28.95
2023-01-30T15:25:01.564Z,35.85
2023-01-30T15:27:36.888Z,35.15
2023-01-30T15:30:20.378Z,30.55
2023-01-30T15:32:48.714Z,30.15
2023-01-30T15:35:28.378Z,40.35
2023-01-30T15:37:57.978Z,39.63
2023-01-30T15:40:28.489Z,29.48
2023-01-30T15:43:14.233Z,34.60
2023-01-30T15:45:56.571Z,27.08
2023-01-30T15:48:52.051Z,47.35
2023-01-30T15:51:27.451Z,46.05
2023-01-30T15:53:58.266Z,41.40
2023-01-30T15:56:28.739Z,37.33
2023-01-30T15:59:00.953Z,48.40
2023-01-30T16:01:29.797Z,53.88
2023-01-30T16:04:00.383Z,37.80
2023-01-30T16:06:32.653Z,40.53
2023-01-30T16:09:03.073Z,44.05
2023-01-30T16:11:39.741Z,39.60
2023-01-30T16:14:13.867Z,32.38
2023-01-30T16:16:46.234Z,44.85
2023-01-30T16:19:26.548Z,31.15
2023-01-30T16:21:58.027Z,34.05
2023-01-30T16:24:29.920Z,43.47
2023-01-30T16:27:02.495Z,52.47
2023-01-30T16:29:34.361Z,59.45
2023-01-30T16:32:03.366Z,46.17
2023-01-30T16:34:35.249Z,58.13
2023-01-30T16:37:08.719Z,48.38
2023-01-30T16:42:23.605Z,41.95
2023-01-30T16:45:00.183Z,44.15
2023-01-30T16:47:31.470Z,40.63
2023-01-30T16:49:59.716Z,39.47
2023-01-30T16:52:34.771Z,53.13
2023-01-30T16:55:06.346Z,62.33
2023-01-30T16:57:40.450Z,52.03
2023-01-30T17:00:22.826Z,39.28
2023-01-30T17:02:53.680Z,51.50
2023-01-30T17:05:24.518Z,40.88
2023-01-30T17:07:54.196Z,39.00
2023-01-30T17:10:56.276Z,51.08
2023-01-30T17:13:37.713Z,36.65
2023-01-30T17:16:28.576Z,40.00
2023-01-30T17:18:58.227Z,41.60
2023-01-30T17:21:30.418Z,41.45
2023-01-30T17:24:02.712Z,39.85
2023-01-30T17:26:32.281Z,56.33
2023-01-30T17:29:00.763Z,36.65
2023-01-30T17:31:30.353Z,51.85
2023-01-30T17:33:58.340Z,37.42
2023-01-30T17:36:28.592Z,53.50
2023-01-30T17:38:58.482Z,48.63
2023-01-30T17:41:28.613Z,57.13
2023-01-30T17:43:56.747Z,47.20
2023-01-30T17:46:32.411Z,42.30
2023-01-30T17:49:02.173Z,44.33
2023-01-30T17:51:30.360Z,51.83
2023-01-30T17:53:58.477Z,58.90
2023-01-30T17:56:32.401Z,46.13
2023-01-30T17:59:00.461Z,48.30
2023-01-30T18:01:28.662Z,46.40
2023-01-30T18:03:56.745Z,50.83
2023-01-30T18:06:27.263Z,51.30
2023-01-30T18:08:55.398Z,51.50
2023-01-30T18:11:23.923Z,44.40
2023-01-30T18:13:52.123Z,44.55
2023-01-30T18:16:24.685Z,58.42
2023-01-30T18:18:52.777Z,44.00
2023-01-30T18:21:22.281Z,48.92
2023-01-30T18:23:51.969Z,27.52
2023-01-30T18:26:20.463Z,36.72
2023-01-30T18:28:49.266Z,43.15
2023-01-30T18:31:18.597Z,33.88
2023-01-30T18:33:47.338Z,36.58
2023-01-30T18:36:17.450Z,44.33
2023-01-30T18:38:45.923Z,33.30
2023-01-30T18:41:17.332Z,40.63
2023-01-30T18:43:48.447Z,38.40
2023-01-30T18:46:18.508Z,40.28
2023-01-30T18:48:47.777Z,37.88
2023-01-30T18:51:17.049Z,40.72
2023-01-30T18:53:45.064Z,33.33
2023-01-30T18:56:18.006Z,36.75
2023-01-30T18:58:46.465Z,37.63
2023-01-30T19:01:16.621Z,35.50
2023-01-30T19:03:45.137Z,35.67
2023-01-30T19:06:16.480Z,43.58
2023-01-30T19:08:45.064Z,38.78
2023-01-30T19:11:33.363Z,49.92
2023-01-30T19:14:01.513Z,35.60
2023-01-30T19:16:32.224Z,42.60
2023-01-30T19:19:01.130Z,41.72
2023-01-30T19:21:29.783Z,33.30
2023-01-30T19:23:58.132Z,32.35
2023-01-30T19:26:29.602Z,35.78
2023-01-30T19:28:57.650Z,38.10
2023-01-30T19:31:25.839Z,25.73
2023-01-30T19:34:00.705Z,34.30
2023-01-30T19:36:31.718Z,27.27
2023-01-30T19:39:00.520Z,44.70
2023-01-30T19:41:32.198Z,30.38
2023-01-30T19:44:04.349Z,27.63
2023-01-30T19:46:33.982Z,27.98
2023-01-30T19:49:03.482Z,48.10
2023-01-30T19:51:33.752Z,42.00
2023-01-30T19:54:04.491Z,41.42
2023-01-30T19:56:34.735Z,32.92
2023-01-30T19:59:04.056Z,40.67
2023-01-30T20:01:35.953Z,43.40
2023-01-30T20:04:05.365Z,42.22
2023-01-30T20:06:35.635Z,39.92
2023-01-30T20:09:06.436Z,41.70
2023-01-30T20:11:37.883Z,42.90
2023-01-30T20:14:07.215Z,36.72
2023-01-30T20:16:36.559Z,38.08
2023-01-30T20:19:07.720Z,44.33
2023-01-30T20:21:37.362Z,53.08
2023-01-30T20:24:06.860Z,39.85
2023-01-30T20:26:39.757Z,43.95
2023-01-30T20:29:10.424Z,45.70
2023-01-30T20:31:39.631Z,38.92
2023-01-30T20:34:09.692Z,45.88
2023-01-30T20:36:37.823Z,44.70
2023-01-30T20:39:07.589Z,42.42
2023-01-30T20:41:38.841Z,50.47
2023-01-30T20:44:08.537Z,48.55
2023-01-30T20:46:41.345Z,42.20
2023-01-30T20:49:13.684Z,32.35
2023-01-30T20:51:42.029Z,45.10
2023-01-30T20:54:12.305Z,43.28
2023-01-30T20:56:43.757Z,26.27
2023-01-30T20:59:13.533Z,32.25
2023-01-30T21:01:42.459Z,36.33
2023-01-30T21:04:13.518Z,36.85
2023-01-30T21:06:45.723Z,43.83
2023-01-30T21:09:17.869Z,30.45
2023-01-30T21:11:48.091Z,34.58
2023-01-30T21:14:16.780Z,44.53
2023-01-30T21:16:45.381Z,35.85
2023-01-30T21:19:16.296Z,23.27
2023-01-30T21:21:51.140Z,44.97
2023-01-30T21:24:23.921Z,38.97
2023-01-30T21:26:54.207Z,54.53
2023-01-30T21:29:24.803Z,37.72
2023-01-30T21:31:53.387Z,40.40
2023-01-30T21:34:21.520Z,38.10
2023-01-30T21:37:17.789Z,34.95
2023-01-30T21:40:04.049Z,62.10
2023-01-30T21:42:51.568Z,42.88
2023-01-30T21:45:21.353Z,45.55
2023-01-30T21:47:52.743Z,27.40
2023-01-30T21:50:21.416Z,38.28
2023-01-30T21:52:49.511Z,34.40
2023-01-30T21:55:18.173Z,38.25
2023-01-30T21:57:47.663Z,44.47
2023-01-30T22:00:16.083Z,40.70
2023-01-30T22:02:44.115Z,38.28
2023-01-30T22:05:12.390Z,38.22
2023-01-30T22:07:40.456Z,41.13
2023-01-30T22:10:09.346Z,39.35
2023-01-30T22:12:40.013Z,35.38
2023-01-30T22:15:10.740Z,35.30
2023-01-30T22:17:38.931Z,39.30
2023-01-30T22:20:09.991Z,43.22
2023-01-30T22:22:38.622Z,42.78
2023-01-30T22:25:08.000Z,28.77
2023-01-30T22:27:36.371Z,30.35
2023-01-30T22:30:05.449Z,45.08
2023-01-30T22:32:36.186Z,41.63
2023-01-30T22:35:07.559Z,39.85
2023-01-30T22:37:35.960Z,43.08
2023-01-30T22:40:04.404Z,34.33
2023-01-30T22:42:32.623Z,25.52
2023-01-30T22:45:00.548Z,48.72
2023-01-30T22:47:29.118Z,36.95
2023-01-30T22:49:58.519Z,26.52
2023-01-30T22:52:26.461Z,47.47
2023-01-30T22:54:54.430Z,32.53
2023-01-30T22:57:22.601Z,35.70
2023-01-30T22:59:52.001Z,29.38
2023-01-30T23:02:20.088Z,40.17
2023-01-30T23:04:49.173Z,44.10
2023-01-30T23:07:20.834Z,52.00
2023-01-30T23:09:48.975Z,34.60
2023-01-30T23:12:34.798Z,28.25
2023-01-30T23:15:06.103Z,41.30
2023-01-30T23:17:52.546Z,39.15
2023-01-30T23:20:20.974Z,38.03
2023-01-30T23:22:53.319Z,37.53
2023-01-30T23:25:21.654Z,46.92
2023-01-30T23:27:50.359Z,34.55
2023-01-30T23:30:19.311Z,32.67
2023-01-30T23:32:47.711Z,41.92
2023-01-30T23:35:15.856Z,27.15
2023-01-30T23:38:01.152Z,27.10
2023-01-30T23:40:30.553Z,43.97
2023-01-30T23:42:58.516Z,30.75
2023-01-30T23:45:28.527Z,31.48
2023-01-30T23:47:57.133Z,50.15
2023-01-30T23:50:25.224Z,29.15
2023-01-30T23:52:53.369Z,41.47
2023-01-30T23:55:22.023Z,30.05
2023-01-30T23:57:51.860Z,31.20
